createdAt,value
2022-11-03T00:01:48.196Z,101334.97
2022-11-03T00:04:17.541Z,101323.69
2022-11-03T00:06:47.553Z,101308.94
2022-11-03T00:09:16.984Z,101303.72
2022-11-03T00:11:46.168Z,101303.72
2022-11-03T00:14:14.621Z,101303.75
2022-11-03T00:16:42.496Z,101298.56
2022-11-03T00:19:11.445Z,101307.22
2022-11-03T00:21:39.517Z,101302.03
2022-11-03T00:24:07.425Z,101291.59
2022-11-03T00:26:36.572Z,101267.31
2022-11-03T00:29:11.265Z,101274.25
2022-11-03T00:31:40.936Z,101274.25
2022-11-03T00:34:09.063Z,101271.66
2022-11-03T00:36:42.066Z,101272.50
2022-11-03T00:39:10.252Z,101262.13
2022-11-03T00:41:38.281Z,101270.78
2022-11-03T00:44:06.012Z,101264.72
2022-11-03T00:46:35.394Z,101258.63
2022-11-03T00:49:04.291Z,101261.22
2022-11-03T00:51:31.795Z,101253.44
2022-11-03T00:54:01.604Z,101261.22
2022-11-03T00:56:30.318Z,101248.25
2022-11-03T00:59:00.162Z,101260.34
2022-11-03T01:01:31.588Z,101260.34
2022-11-03T01:04:04.042Z,101112.94
2022-11-03T01:06:51.215Z,101255.19
2022-11-03T01:09:39.672Z,101248.22
2022-11-03T01:12:15.689Z,101241.28
2022-11-03T01:14:54.471Z,101244.78
2022-11-03T01:17:25.103Z,101233.47
2022-11-03T01:19:52.931Z,101243.88
2022-11-03T01:22:21.512Z,101230.88
2022-11-03T01:24:49.173Z,101225.66
2022-11-03T01:27:18.794Z,101220.47
2022-11-03T01:29:46.779Z,101225.66
2022-11-03T01:32:14.608Z,101217.00
2022-11-03T01:34:42.107Z,101217.88
2022-11-03T01:37:09.617Z,101218.72
2022-11-03T01:39:37.102Z,101219.63
2022-11-03T01:42:04.737Z,101211.81
2022-11-03T01:44:47.334Z,101207.44
2022-11-03T01:47:26.053Z,101206.56
2022-11-03T01:50:03.445Z,101197.03
2022-11-03T01:52:53.082Z,101196.16
2022-11-03T01:55:25.456Z,101195.31
2022-11-03T01:57:52.777Z,101196.19
2022-11-03T02:00:20.358Z,101195.31
2022-11-03T02:02:47.997Z,101196.19
2022-11-03T02:05:17.658Z,101184.91
2022-11-03T02:07:57.957Z,101178.81
2022-11-03T02:10:26.424Z,101176.22
2022-11-03T02:12:54.271Z,101171.03
2022-11-03T02:15:23.044Z,101175.38
2022-11-03T02:17:53.437Z,101176.22
2022-11-03T02:20:27.152Z,101168.41
2022-11-03T02:23:29.879Z,101177.09
2022-11-03T02:26:01.416Z,101163.22
2022-11-03T02:28:34.224Z,101158.88
2022-11-03T02:31:20.289Z,101163.22
2022-11-03T02:34:14.535Z,101147.56
2022-11-03T02:36:49.784Z,101136.31
2022-11-03T02:39:29.926Z,101138.94
2022-11-03T02:42:01.075Z,101137.16
2022-11-03T02:44:29.551Z,101135.44
2022-11-03T02:47:01.625Z,101120.66
2022-11-03T02:49:29.163Z,101118.09
2022-11-03T02:52:01.385Z,101119.81
2022-11-03T02:54:44.085Z,101102.50
2022-11-03T02:57:22.385Z,101090.34
2022-11-03T03:00:01.085Z,101095.53
2022-11-03T03:02:40.545Z,101093.81
2022-11-03T03:05:10.589Z,101088.59
2022-11-03T03:07:41.734Z,101095.53
2022-11-03T03:10:13.451Z,101084.22
2022-11-03T03:13:04.556Z,101082.50
2022-11-03T03:16:02.993Z,101085.94
2022-11-03T03:18:43.218Z,101086.81
2022-11-03T03:21:20.113Z,101078.13
2022-11-03T03:23:55.903Z,101067.72
2022-11-03T03:26:31.853Z,101065.94
2022-11-03T03:29:12.520Z,101057.25
2022-11-03T03:31:44.038Z,101065.94
2022-11-03T03:34:38.212Z,101047.66
2022-11-03T03:37:01.961Z,101049.44
2022-11-03T03:39:34.300Z,101048.53
2022-11-03T03:42:03.016Z,101048.53
2022-11-03T03:44:32.077Z,101043.34
2022-11-03T03:47:06.858Z,101047.66
2022-11-03T03:49:34.297Z,101030.31
2022-11-03T03:52:03.712Z,101036.38
2022-11-03T03:54:31.197Z,101036.34
2022-11-03T03:57:12.547Z,101036.34
2022-11-03T03:59:39.969Z,101031.16
2022-11-03T04:02:07.592Z,101027.69
2022-11-03T04:04:35.097Z,101025.94
2022-11-03T04:07:20.032Z,101019.00
2022-11-03T04:09:47.459Z,101028.53
2022-11-03T04:12:47.435Z,101025.03
2022-11-03T04:15:32.658Z,101021.59
2022-11-03T04:18:17.520Z,101017.28
2022-11-03T04:21:02.888Z,101018.13
2022-11-03T04:23:30.349Z,101014.69
2022-11-03T04:25:58.368Z,101009.47
2022-11-03T04:28:27.197Z,101005.13
2022-11-03T04:30:58.982Z,101003.41
2022-11-03T04:33:27.546Z,101000.78
2022-11-03T04:35:58.793Z,100987.84
2022-11-03T04:38:28.843Z,101005.13
2022-11-03T04:40:58.325Z,100996.47
2022-11-03T04:43:34.922Z,100982.56
2022-11-03T04:46:03.258Z,100987.78
2022-11-03T04:48:31.020Z,100982.56
2022-11-03T04:51:03.201Z,100977.34
2022-11-03T04:53:33.948Z,100967.81
2022-11-03T04:56:06.142Z,100976.47
2022-11-03T04:58:36.817Z,100978.22
2022-11-03T05:01:05.184Z,100971.25
2022-11-03T05:03:38.530Z,100954.78
2022-11-03T05:06:13.111Z,100971.22
2022-11-03T05:08:41.102Z,100961.66
2022-11-03T05:11:25.359Z,100965.09
2022-11-03T05:13:53.779Z,100960.75
2022-11-03T05:16:21.566Z,100951.19
2022-11-03T05:18:51.078Z,100945.09
2022-11-03T05:21:23.708Z,100932.03
2022-11-03T05:23:55.807Z,100946.78
2022-11-03T05:26:27.647Z,100932.84
2022-11-03T05:28:59.790Z,100938.91
2022-11-03T05:31:29.891Z,100924.16
2022-11-03T05:33:59.995Z,100932.84
2022-11-03T05:36:30.836Z,100922.44
2022-11-03T05:39:32.340Z,100918.06
2022-11-03T05:42:01.404Z,100911.13
2022-11-03T05:44:36.732Z,100903.31
2022-11-03T05:47:13.393Z,100912.00
2022-11-03T05:49:41.142Z,100902.38
2022-11-03T05:52:17.764Z,100905.88
2022-11-03T05:54:45.262Z,100902.38
2022-11-03T05:57:15.798Z,100899.78
2022-11-03T05:59:46.288Z,100907.59
2022-11-03T06:02:40.325Z,100902.38
2022-11-03T06:05:22.163Z,100891.94
2022-11-03T06:07:56.364Z,100882.38
2022-11-03T06:10:36.944Z,100878.91
2022-11-03T06:13:17.371Z,100878.84
2022-11-03T06:15:47.928Z,100872.78
2022-11-03T06:18:24.321Z,100881.44
2022-11-03T06:21:03.316Z,100871.88
2022-11-03T06:23:30.859Z,100880.53
2022-11-03T06:25:59.234Z,100864.06
2022-11-03T06:28:33.016Z,100863.22
2022-11-03T06:31:00.762Z,100862.34
2022-11-03T06:33:30.827Z,100862.34
2022-11-03T06:36:04.682Z,100851.94
2022-11-03T06:38:34.743Z,100858.84
2022-11-03T06:41:02.284Z,100864.88
2022-11-03T06:43:42.579Z,100837.22
2022-11-03T06:46:19.537Z,100844.94
2022-11-03T06:48:47.358Z,100851.03
2022-11-03T06:51:21.899Z,100844.03
2022-11-03T06:53:51.315Z,100837.94
2022-11-03T06:56:25.436Z,100831.03
2022-11-03T06:58:55.436Z,100843.06
2022-11-03T07:01:26.980Z,100839.56
2022-11-03T07:04:01.213Z,100843.84
2022-11-03T07:06:35.620Z,100836.00
2022-11-03T07:09:06.577Z,100840.31
2022-11-03T07:11:46.556Z,100846.34
2022-11-03T07:14:20.612Z,100854.19
2022-11-03T07:16:51.739Z,100844.56
2022-11-03T07:19:24.792Z,100851.50
2022-11-03T07:22:01.904Z,100834.97
2022-11-03T07:24:37.462Z,100839.28
2022-11-03T07:27:23.380Z,100841.97
2022-11-03T07:29:52.910Z,100837.53
2022-11-03T07:32:23.463Z,100837.53
2022-11-03T07:34:53.994Z,100835.75
2022-11-03T07:37:25.195Z,100832.28
2022-11-03T07:39:53.827Z,100837.44
2022-11-03T07:42:23.690Z,100831.34
2022-11-03T07:44:52.586Z,100828.66
2022-11-03T07:47:23.035Z,100825.19
2022-11-03T07:49:50.533Z,100823.44
2022-11-03T07:52:21.996Z,100820.81
2022-11-03T07:54:51.695Z,100821.69
2022-11-03T07:57:25.990Z,100822.47
2022-11-03T07:59:57.460Z,100825.06
2022-11-03T08:02:32.825Z,100825.00
2022-11-03T08:05:01.136Z,100818.91
2022-11-03T08:07:29.114Z,100826.63
2022-11-03T08:09:57.320Z,100801.41
2022-11-03T08:12:24.891Z,100809.13
2022-11-03T08:14:52.426Z,100805.59
2022-11-03T08:17:19.948Z,100794.31
2022-11-03T08:19:47.550Z,100802.09
2022-11-03T08:22:14.993Z,100792.31
2022-11-03T08:24:42.493Z,100790.53
2022-11-03T08:27:09.929Z,100775.81
2022-11-03T08:29:37.494Z,100780.97
2022-11-03T08:32:05.208Z,100763.53
2022-11-03T08:34:32.687Z,100770.44
2022-11-03T08:37:00.172Z,100757.34
2022-11-03T08:39:27.827Z,100755.66
2022-11-03T08:41:55.244Z,100752.97
2022-11-03T08:44:22.687Z,100745.84
2022-11-03T08:46:50.129Z,100741.44
2022-11-03T08:49:17.574Z,100731.78
2022-11-03T08:51:45.294Z,100729.00
2022-11-03T08:54:12.781Z,100729.88
2022-11-03T08:56:40.278Z,100720.38
2022-11-03T08:59:07.785Z,100718.47
2022-11-03T09:01:35.279Z,100710.59
2022-11-03T09:04:03.378Z,100698.25
2022-11-03T09:06:31.031Z,100694.94
2022-11-03T09:11:46.362Z,100671.22
2022-11-03T09:14:14.004Z,100662.34
2022-11-03T09:16:41.518Z,100667.47
2022-11-03T09:19:09.057Z,100657.06
2022-11-03T09:21:36.659Z,100656.00
2022-11-03T09:24:04.375Z,100649.06
2022-11-03T09:26:31.824Z,100640.25
2022-11-03T09:28:59.324Z,100629.75
2022-11-03T09:31:28.466Z,100621.91
2022-11-03T09:33:56.278Z,100621.59
2022-11-03T09:36:23.732Z,100613.00
2022-11-03T09:38:51.212Z,100612.78
2022-11-03T09:41:26.603Z,100599.78
2022-11-03T09:44:03.389Z,100592.84
2022-11-03T09:46:31.603Z,100594.31
2022-11-03T09:48:59.841Z,100586.50
2022-11-03T09:51:28.652Z,100583.97
2022-11-03T09:54:03.432Z,100570.13
2022-11-03T09:56:32.174Z,100576.19
2022-11-03T09:59:00.910Z,100572.03
2022-11-03T10:01:28.814Z,100562.91
2022-11-03T10:04:00.886Z,100568.13
2022-11-03T10:06:28.328Z,100557.91
2022-11-03T10:08:55.990Z,100546.38
2022-11-03T10:11:23.515Z,100548.19
2022-11-03T10:13:56.476Z,100548.91
2022-11-03T10:16:27.247Z,100538.38
2022-11-03T10:18:55.181Z,100539.16
2022-11-03T10:21:34.126Z,100535.94
2022-11-03T10:24:01.739Z,100530.59
2022-11-03T10:26:35.216Z,100522.63
2022-11-03T10:29:05.962Z,100519.13
2022-11-03T10:31:36.576Z,100513.66
2022-11-03T10:34:05.555Z,100511.06
2022-11-03T10:36:35.011Z,100506.69
2022-11-03T10:39:30.584Z,100500.38
2022-11-03T10:41:59.705Z,100495.19
2022-11-03T10:44:29.388Z,100496.75
2022-11-03T10:46:58.464Z,100487.09
2022-11-03T10:49:26.015Z,100472.28
2022-11-03T10:51:55.665Z,100459.13
2022-11-03T10:54:24.988Z,100461.44
2022-11-03T10:56:53.469Z,100449.44
2022-11-03T10:59:25.263Z,100448.41
2022-11-03T11:01:53.106Z,100452.69
2022-11-03T11:04:21.987Z,100444.81
2022-11-03T11:06:49.682Z,100443.69
2022-11-03T11:09:25.467Z,100439.41
2022-11-03T11:12:15.958Z,100437.44
2022-11-03T11:15:31.602Z,100436.31
2022-11-03T11:17:59.118Z,100429.81
2022-11-03T11:20:31.113Z,100428.41
2022-11-03T11:23:30.337Z,100429.41
2022-11-03T11:26:09.882Z,100422.28
2022-11-03T11:28:40.313Z,100411.94
2022-11-03T11:31:33.820Z,100412.34
2022-11-03T11:34:10.396Z,100408.72
2022-11-03T11:36:39.769Z,100406.72
2022-11-03T11:39:25.345Z,100401.28
2022-11-03T11:42:18.676Z,100380.81
2022-11-03T11:44:46.191Z,100381.56
2022-11-03T11:47:25.992Z,100386.53
2022-11-03T11:50:02.586Z,100375.31
2022-11-03T11:52:31.273Z,100372.44
2022-11-03T11:54:58.922Z,100351.25
2022-11-03T11:57:35.348Z,100343.28
2022-11-03T12:00:03.568Z,100353.66
2022-11-03T12:02:31.791Z,100334.81
2022-11-03T12:05:01.261Z,100319.13
2022-11-03T12:07:36.678Z,100317.84
2022-11-03T12:10:15.706Z,100317.69
2022-11-03T12:12:43.289Z,100301.72
2022-11-03T12:15:48.532Z,100303.84
2022-11-03T12:18:50.177Z,100289.84
2022-11-03T12:22:03.026Z,100290.63
2022-11-03T12:24:33.596Z,100270.59
2022-11-03T12:27:01.987Z,100288.81
2022-11-03T12:29:29.455Z,100284.59
2022-11-03T12:31:56.986Z,100286.84
2022-11-03T12:34:24.548Z,100267.94
2022-11-03T12:36:56.165Z,100273.41
2022-11-03T12:39:23.931Z,100259.69
2022-11-03T12:41:51.446Z,100261.53
2022-11-03T12:44:18.942Z,100250.47
2022-11-03T12:46:47.029Z,100243.06
2022-11-03T12:49:14.474Z,100250.44
2022-11-03T12:51:41.932Z,100248.91
2022-11-03T12:54:09.404Z,100233.41
2022-11-03T12:56:36.884Z,100236.38
2022-11-03T12:59:04.327Z,100216.31
2022-11-03T13:01:33.330Z,100222.94
2022-11-03T13:04:01.385Z,100193.81
2022-11-03T13:06:28.847Z,100199.41
2022-11-03T13:08:56.369Z,100170.94
2022-11-03T13:11:41.543Z,100181.22
2022-11-03T13:14:09.035Z,100175.09
2022-11-03T13:16:36.748Z,100182.72
2022-11-03T13:19:04.240Z,100169.78
2022-11-03T13:21:31.990Z,100171.66
2022-11-03T13:23:59.600Z,100171.75
2022-11-03T13:26:27.181Z,100158.22
2022-11-03T13:28:54.690Z,100155.31
2022-11-03T13:31:22.199Z,100142.00
2022-11-03T13:33:50.848Z,100139.31
2022-11-03T13:36:18.396Z,100136.09
2022-11-03T13:38:46.022Z,100126.88
2022-11-03T13:41:13.664Z,100117.00
2022-11-03T13:43:41.153Z,100108.56
2022-11-03T13:46:08.667Z,100113.94
2022-11-03T13:51:23.807Z,100108.34
2022-11-03T13:59:27.047Z,100110.44
2022-11-03T14:04:44.207Z,100078.44
2022-11-03T14:07:12.238Z,100074.09
2022-11-03T14:09:39.823Z,100074.56
2022-11-03T14:12:25.382Z,100062.34
2022-11-03T14:14:52.944Z,100065.88
2022-11-03T14:17:20.516Z,100062.69
2022-11-03T14:19:52.463Z,100074.00
2022-11-03T14:22:24.749Z,100056.94
2022-11-03T14:24:52.956Z,100058.75
2022-11-03T14:27:21.014Z,100060.22
2022-11-03T14:29:50.279Z,100056.81
2022-11-03T14:32:19.630Z,100049.03
2022-11-03T14:34:47.980Z,100046.66
2022-11-03T14:37:16.386Z,100039.88
2022-11-03T14:39:44.132Z,100016.03
2022-11-03T14:42:15.518Z,100040.06
2022-11-03T14:44:45.275Z,100051.53
2022-11-03T14:47:21.542Z,100045.63
2022-11-03T14:49:49.666Z,100040.47
2022-11-03T14:52:18.620Z,100045.97
2022-11-03T14:54:46.165Z,100011.81
2022-11-03T14:57:13.633Z,100035.94
2022-11-03T14:59:41.796Z,100027.28
2022-11-03T15:02:09.432Z,100028.28
2022-11-03T15:04:37.146Z,100026.00
2022-11-03T15:07:04.664Z,100015.88
2022-11-03T15:09:32.172Z,100022.56
2022-11-03T15:11:59.673Z,100014.31
2022-11-03T15:14:27.144Z,100000.56
2022-11-03T15:16:54.588Z,99995.34
2022-11-03T15:19:22.082Z,99993.88
2022-11-03T15:21:49.548Z,99980.94
2022-11-03T15:27:04.541Z,99975.19
2022-11-03T15:29:32.064Z,99971.81
2022-11-03T15:31:59.642Z,99974.63
2022-11-03T15:34:27.120Z,99973.13
2022-11-03T15:36:54.650Z,99965.56
2022-11-03T15:39:22.177Z,99961.25
2022-11-03T15:41:49.684Z,99962.22
2022-11-03T15:44:17.240Z,99970.06
2022-11-03T15:46:44.739Z,99953.78
2022-11-03T15:49:12.285Z,99945.31
2022-11-03T15:51:39.938Z,99950.53
2022-11-03T15:54:08.218Z,99937.69
2022-11-03T15:56:35.698Z,99944.91
2022-11-03T15:59:03.275Z,99946.00
2022-11-03T16:01:30.879Z,99941.69
2022-11-03T16:03:58.525Z,99926.56
2022-11-03T16:06:46.709Z,99934.50
2022-11-03T16:09:13.653Z,99932.81
2022-11-03T16:11:41.175Z,99925.31
2022-11-03T16:14:08.691Z,99927.97
2022-11-03T16:16:36.264Z,99917.09
2022-11-03T16:19:03.777Z,99923.25
2022-11-03T16:21:31.231Z,99924.44
2022-11-03T16:23:58.794Z,99927.84
2022-11-03T16:26:26.261Z,99923.94
2022-11-03T16:28:53.782Z,99911.13
2022-11-03T16:31:21.321Z,99923.13
2022-11-03T16:33:49.159Z,99916.38
2022-11-03T16:36:16.620Z,99930.25
2022-11-03T16:38:44.166Z,99927.69
2022-11-03T16:41:11.721Z,99932.84
2022-11-03T16:43:39.586Z,99934.66
2022-11-03T16:46:07.211Z,99915.56
2022-11-03T16:48:34.918Z,99924.22
2022-11-03T16:51:02.425Z,99930.03
2022-11-03T16:53:29.928Z,99932.91
2022-11-03T16:55:57.417Z,99938.19
2022-11-03T16:58:25.481Z,99921.28
2022-11-03T17:00:53.037Z,99928.16
2022-11-03T17:03:20.658Z,99929.09
2022-11-03T17:05:48.183Z,99930.06
2022-11-03T17:08:46.301Z,99930.31
2022-11-03T17:11:03.134Z,99926.09
2022-11-03T17:13:30.639Z,99910.56
2022-11-03T17:15:58.232Z,99911.50
2022-11-03T17:18:25.709Z,99908.31
2022-11-03T17:20:53.181Z,99918.75
2022-11-03T17:23:20.670Z,99921.53
2022-11-03T17:25:48.537Z,99917.09
2022-11-03T17:28:18.746Z,99920.63
2022-11-03T17:30:46.485Z,99926.84
2022-11-03T17:33:18.130Z,99915.66
2022-11-03T17:35:47.176Z,99917.44
2022-11-03T17:38:18.761Z,99926.31
2022-11-03T17:40:48.272Z,99926.31
2022-11-03T17:43:24.943Z,99929.72
2022-11-03T17:45:52.684Z,99910.75
2022-11-03T17:48:22.582Z,99912.53
2022-11-03T17:50:53.392Z,99910.09
2022-11-03T17:53:26.851Z,99905.63
2022-11-03T17:56:27.822Z,99893.63
2022-11-03T17:58:46.581Z,99893.63
2022-11-03T18:01:22.931Z,99889.47
2022-11-03T18:03:50.513Z,99893.72
2022-11-03T18:06:20.231Z,99896.31
2022-11-03T18:08:48.985Z,99900.66
2022-11-03T18:11:42.627Z,99899.09
2022-11-03T18:14:10.264Z,99888.59
2022-11-03T18:16:38.080Z,99881.75
2022-11-03T18:19:05.603Z,99877.34
2022-11-03T18:21:33.104Z,99883.38
2022-11-03T18:24:00.640Z,99883.38
2022-11-03T18:26:28.486Z,99884.31
2022-11-03T18:28:56.012Z,99880.81
2022-11-03T18:31:33.798Z,99880.91
2022-11-03T18:34:05.704Z,99885.22
2022-11-03T18:36:34.334Z,99879.28
2022-11-03T18:39:02.587Z,99874.91
2022-11-03T18:41:39.294Z,99874.91
2022-11-03T18:44:28.179Z,99873.13
2022-11-03T18:46:56.377Z,99877.41
2022-11-03T18:49:27.810Z,99860.94
2022-11-03T18:52:03.044Z,99867.00
2022-11-03T18:54:33.821Z,99854.16
2022-11-03T18:57:02.162Z,99862.69
2022-11-03T18:59:33.126Z,99861.06
2022-11-03T19:02:00.919Z,99861.94
2022-11-03T19:04:28.528Z,99867.00
2022-11-03T19:06:56.094Z,99864.50
2022-11-03T19:09:26.735Z,99869.59
2022-11-03T19:11:58.266Z,99863.63
2022-11-03T19:14:38.139Z,99852.22
2022-11-03T19:17:22.382Z,99854.09
2022-11-03T19:19:51.187Z,99845.44
2022-11-03T19:22:21.060Z,99850.66
2022-11-03T19:24:48.913Z,99848.09
2022-11-03T19:27:21.308Z,99832.47
2022-11-03T19:29:49.648Z,99824.00
2022-11-03T19:32:27.269Z,99828.25
2022-11-03T19:35:07.877Z,99814.59
2022-11-03T19:37:36.423Z,99806.84
2022-11-03T19:40:08.781Z,99806.75
2022-11-03T19:42:36.776Z,99802.47
2022-11-03T19:45:12.445Z,99816.28
2022-11-03T19:47:57.607Z,99811.19
2022-11-03T19:50:33.239Z,99802.41
2022-11-03T19:53:03.872Z,99807.50
2022-11-03T19:55:35.046Z,99804.03
2022-11-03T19:58:15.304Z,99794.50
2022-11-03T20:00:43.758Z,99798.75
2022-11-03T20:03:11.728Z,99792.69
2022-11-03T20:05:42.872Z,99794.38
2022-11-03T20:08:19.696Z,99790.81
2022-11-03T20:10:47.950Z,99798.56
2022-11-03T20:13:17.539Z,99797.81
2022-11-03T20:15:45.083Z,99796.94
2022-11-03T20:18:13.710Z,99800.47
2022-11-03T20:20:43.173Z,99814.13
2022-11-03T20:23:22.125Z,99810.69
2022-11-03T20:25:50.060Z,99814.19
2022-11-03T20:28:21.256Z,99806.25
2022-11-03T20:30:49.614Z,99802.81
2022-11-03T20:33:19.287Z,99810.59
2022-11-03T20:35:47.965Z,99807.13
2022-11-03T20:38:18.915Z,99800.28
2022-11-03T20:40:47.892Z,99793.38
2022-11-03T20:43:31.505Z,99800.28
2022-11-03T20:45:59.137Z,99789.88
2022-11-03T20:48:26.777Z,99784.59
2022-11-03T20:50:55.560Z,99772.72
2022-11-03T20:53:25.172Z,99785.56
2022-11-03T20:55:53.859Z,99798.56
2022-11-03T20:58:21.734Z,99801.19
2022-11-03T21:00:50.104Z,99816.84
2022-11-03T21:03:37.557Z,99824.53
2022-11-03T21:06:16.493Z,99834.22
2022-11-03T21:08:45.512Z,99849.03
2022-11-03T21:11:27.346Z,99850.81
2022-11-03T21:13:58.712Z,99854.28
2022-11-03T21:16:45.001Z,99856.88
2022-11-03T21:19:33.895Z,99852.59
2022-11-03T21:22:01.767Z,99851.84
2022-11-03T21:24:29.382Z,99849.25
2022-11-03T21:26:57.568Z,99854.53
2022-11-03T21:29:53.501Z,99851.09
2022-11-03T21:32:15.447Z,99870.22
2022-11-03T21:34:43.924Z,99889.41
2022-11-03T21:37:15.756Z,99904.25
2022-11-03T21:39:44.564Z,99937.25
2022-11-03T21:42:31.231Z,99931.31
2022-11-03T21:44:59.272Z,99927.03
2022-11-03T21:47:26.965Z,99948.72
2022-11-03T21:49:53.455Z,99946.16
2022-11-03T21:52:31.834Z,99937.53
2022-11-03T21:55:00.371Z,99941.00
2022-11-03T21:57:28.413Z,99947.88
2022-11-03T21:59:58.611Z,99934.91
2022-11-03T22:02:29.755Z,99939.22
2022-11-03T22:04:57.300Z,99943.53
2022-11-03T22:07:25.038Z,99948.78
2022-11-03T22:09:52.485Z,99944.47
2022-11-03T22:12:19.916Z,99947.94
2022-11-03T22:15:04.929Z,99945.41
2022-11-03T22:17:32.480Z,99948.91
2022-11-03T22:20:17.376Z,99959.28
2022-11-03T22:23:02.625Z,99959.38
2022-11-03T22:25:47.449Z,99959.47
2022-11-03T22:28:15.399Z,99961.22
2022-11-03T22:31:00.572Z,99960.28
2022-11-03T22:33:29.365Z,99959.47
2022-11-03T22:36:20.253Z,99978.53
2022-11-03T22:39:06.862Z,99970.88
2022-11-03T22:41:51.548Z,99975.22
2022-11-03T22:44:36.408Z,99980.44
2022-11-03T22:47:05.644Z,99964.81
2022-11-03T22:49:35.385Z,99959.69
2022-11-03T22:52:02.973Z,99971.91
2022-11-03T22:54:29.513Z,99982.25
2022-11-03T22:56:56.969Z,99985.81
2022-11-03T22:59:24.413Z,99997.84
2022-11-03T23:01:52.260Z,100004.75
2022-11-03T23:04:19.780Z,100009.97
2022-11-03T23:06:47.224Z,100020.31
2022-11-03T23:09:14.727Z,100017.72
2022-11-03T23:11:42.260Z,100015.13
2022-11-03T23:14:11.941Z,100019.44
2022-11-03T23:16:41.924Z,100008.19
2022-11-03T23:19:30.228Z,100009.91
2022-11-03T23:21:57.734Z,100006.56
2022-11-03T23:24:45.312Z,100015.16
2022-11-03T23:27:14.261Z,100011.75
2022-11-03T23:29:41.834Z,100016.09
2022-11-03T23:32:09.582Z,100012.69
2022-11-03T23:34:36.998Z,100029.13
2022-11-03T23:37:04.743Z,100039.53
2022-11-03T23:39:32.194Z,100034.31
2022-11-03T23:41:59.645Z,100032.59
2022-11-03T23:44:47.071Z,100042.97
2022-11-03T23:47:31.713Z,100032.59
2022-11-03T23:49:59.221Z,100032.66
2022-11-03T23:52:26.676Z,100045.69
2022-11-03T23:54:54.092Z,100044.00
2022-11-03T23:57:39.014Z,100048.41
